createdAt,value
2022-07-29T00:00:25.478Z,101975.78
2022-07-29T00:02:53.475Z,101966.97
2022-07-29T00:05:22.525Z,101935.34
2022-07-29T00:07:50.577Z,101972.88
2022-07-29T00:10:18.622Z,101965.66
2022-07-29T00:12:46.796Z,101976.25
2022-07-29T00:15:16.343Z,101970.09
2022-07-29T00:17:44.266Z,101973.56
2022-07-29T00:20:12.715Z,101973.50
2022-07-29T00:22:41.472Z,101972.50
2022-07-29T00:25:09.999Z,101964.53
2022-07-29T00:27:38.723Z,101966.22
2022-07-29T00:30:08.937Z,101977.56
2022-07-29T00:32:38.334Z,101974.88
2022-07-29T00:35:24.772Z,101965.13
2022-07-29T00:37:52.758Z,101968.56
2022-07-29T00:40:23.375Z,101961.38
2022-07-29T00:42:54.837Z,101938.13
2022-07-29T00:45:23.211Z,101964.75
2022-07-29T00:47:52.574Z,101961.13
2022-07-29T00:50:21.102Z,101961.94
2022-07-29T00:52:49.709Z,101954.81
2022-07-29T00:55:18.233Z,101956.56
2022-07-29T00:57:46.903Z,101947.66
2022-07-29T01:00:18.464Z,101942.28
2022-07-29T01:02:49.320Z,101955.59
2022-07-29T01:05:20.884Z,101953.81
2022-07-29T01:07:50.693Z,101956.28
2022-07-29T01:10:20.650Z,101960.53
2022-07-29T01:12:50.978Z,101963.94
2022-07-29T01:15:19.353Z,101962.09
2022-07-29T01:17:53.970Z,101958.53
2022-07-29T01:20:31.260Z,101956.63
2022-07-29T01:23:29.010Z,101959.19
2022-07-29T01:26:25.074Z,101950.28
2022-07-29T01:29:07.746Z,101959.84
2022-07-29T01:31:49.152Z,101958.06
2022-07-29T01:34:36.946Z,101961.47
2022-07-29T01:37:10.826Z,101963.09
2022-07-29T01:39:40.742Z,101955.94
2022-07-29T01:42:16.736Z,101955.81
2022-07-29T01:44:53.280Z,101953.97
2022-07-29T01:47:25.577Z,101963.47
2022-07-29T01:49:56.774Z,101962.56
2022-07-29T01:52:31.470Z,101967.72
2022-07-29T01:55:04.857Z,101949.78
2022-07-29T01:57:36.054Z,101945.44
2022-07-29T02:00:07.361Z,101946.94
2022-07-29T02:02:39.379Z,101937.00
2022-07-29T02:05:10.098Z,101958.53
2022-07-29T02:07:39.887Z,101963.72
2022-07-29T02:10:09.806Z,101964.56
2022-07-29T02:12:39.182Z,101955.53
2022-07-29T02:15:11.114Z,101967.97
2022-07-29T02:17:43.535Z,101967.84
2022-07-29T02:20:12.275Z,101966.06
2022-07-29T02:22:41.981Z,101968.69
2022-07-29T02:25:14.008Z,101903.25
2022-07-29T02:27:44.267Z,101951.53
2022-07-29T02:30:14.777Z,101964.91
2022-07-29T02:32:45.397Z,101899.25
2022-07-29T02:35:17.497Z,101966.53
2022-07-29T02:38:07.726Z,101930.47
2022-07-29T02:40:38.254Z,101971.47
2022-07-29T02:43:08.915Z,101943.75
2022-07-29T02:45:38.625Z,101969.63
2022-07-29T02:48:12.264Z,101973.16
2022-07-29T02:50:46.445Z,101973.97
2022-07-29T02:53:20.697Z,101974.81
2022-07-29T02:55:53.637Z,101985.34
2022-07-29T02:58:29.642Z,101977.38
2022-07-29T03:01:01.796Z,101972.13
2022-07-29T03:03:34.705Z,101986.94
2022-07-29T03:06:04.518Z,101978.16
2022-07-29T03:08:34.214Z,101984.31
2022-07-29T03:11:03.924Z,101982.56
2022-07-29T03:13:32.654Z,101987.84
2022-07-29T03:16:03.936Z,101988.78
2022-07-29T03:18:33.332Z,101987.06
2022-07-29T03:21:01.555Z,101997.63
2022-07-29T03:23:33.170Z,101999.38
2022-07-29T03:26:04.896Z,101988.91
2022-07-29T03:28:32.912Z,101995.13
2022-07-29T03:31:03.586Z,101997.00
2022-07-29T03:33:33.964Z,101988.97
2022-07-29T03:36:03.427Z,102000.56
2022-07-29T03:38:35.777Z,102000.66
2022-07-29T03:41:08.139Z,102006.03
2022-07-29T03:43:49.311Z,102000.81
2022-07-29T03:46:23.021Z,101997.41
2022-07-29T03:48:55.106Z,101990.38
2022-07-29T03:51:33.867Z,102004.53
2022-07-29T03:54:09.334Z,101995.69
2022-07-29T03:56:42.400Z,101977.09
2022-07-29T03:59:12.885Z,102007.59
2022-07-29T04:01:43.723Z,101998.94
2022-07-29T04:04:12.310Z,102005.19
2022-07-29T04:06:42.250Z,102007.13
2022-07-29T04:09:10.792Z,101993.97
2022-07-29T04:12:01.556Z,102009.28
2022-07-29T04:14:28.990Z,102011.19
2022-07-29T04:16:58.306Z,102010.47
2022-07-29T04:19:26.137Z,101998.16
2022-07-29T04:21:54.189Z,102017.88
2022-07-29T04:24:22.262Z,101999.38
2022-07-29T04:26:53.071Z,102003.16
2022-07-29T04:29:21.061Z,102011.44
2022-07-29T04:31:49.199Z,102010.72
2022-07-29T04:34:19.323Z,102013.63
2022-07-29T04:36:47.950Z,102010.34
2022-07-29T04:39:20.647Z,102000.84
2022-07-29T04:41:52.481Z,102007.59
2022-07-29T04:44:22.888Z,102014.91
2022-07-29T04:46:57.329Z,101994.78
2022-07-29T04:49:27.182Z,102013.81
2022-07-29T04:51:55.213Z,102014.16
2022-07-29T04:54:23.757Z,102021.53
2022-07-29T04:56:52.868Z,102012.03
2022-07-29T04:59:20.799Z,102008.84
2022-07-29T05:01:48.923Z,102011.78
2022-07-29T05:04:17.117Z,102005.94
2022-07-29T05:06:46.706Z,102009.59
2022-07-29T05:09:14.847Z,102012.41
2022-07-29T05:11:42.692Z,102002.84
2022-07-29T05:14:10.646Z,102012.69
2022-07-29T05:16:40.257Z,102012.88
2022-07-29T05:19:13.696Z,102006.09
2022-07-29T05:21:42.491Z,102009.00
2022-07-29T05:24:12.756Z,101995.97
2022-07-29T05:26:41.338Z,102013.13
2022-07-29T05:29:43.312Z,102012.50
2022-07-29T05:31:57.443Z,102018.19
2022-07-29T05:34:26.272Z,102022.78
2022-07-29T05:36:54.448Z,102023.81
2022-07-29T05:39:48.906Z,102023.31
2022-07-29T05:42:13.165Z,102023.66
2022-07-29T05:44:41.276Z,102025.63
2022-07-29T05:47:09.266Z,102030.41
2022-07-29T05:49:37.418Z,101978.75
2022-07-29T05:52:05.966Z,102012.84
2022-07-29T05:54:35.284Z,102027.44
2022-07-29T05:57:03.553Z,102016.94
2022-07-29T05:59:31.553Z,102022.50
2022-07-29T06:01:59.598Z,102022.66
2022-07-29T06:04:27.849Z,102007.50
2022-07-29T06:06:55.794Z,102022.84
2022-07-29T06:09:24.071Z,102025.53
2022-07-29T06:11:53.530Z,102026.50
2022-07-29T06:14:21.610Z,102021.25
2022-07-29T06:16:49.618Z,102029.34
2022-07-29T06:19:18.055Z,102032.06
2022-07-29T06:21:46.547Z,102030.41
2022-07-29T06:24:15.872Z,102038.53
2022-07-29T06:26:44.862Z,102037.81
2022-07-29T06:29:14.363Z,102044.13
2022-07-29T06:31:42.346Z,102042.50
2022-07-29T06:34:10.700Z,102045.34
2022-07-29T06:36:39.757Z,102041.06
2022-07-29T06:39:09.880Z,102046.69
2022-07-29T06:41:39.941Z,102054.88
2022-07-29T06:44:07.845Z,102049.75
2022-07-29T06:46:37.608Z,102041.78
2022-07-29T06:49:06.638Z,102051.75
2022-07-29T06:51:34.584Z,102047.44
2022-07-29T06:54:03.762Z,102053.72
2022-07-29T06:56:38.897Z,102052.94
2022-07-29T06:59:08.470Z,102056.66
2022-07-29T07:01:38.386Z,102013.97
2022-07-29T07:04:06.490Z,102057.91
2022-07-29T07:06:34.470Z,102058.22
2022-07-29T07:09:02.557Z,102059.28
2022-07-29T07:11:30.999Z,102046.97
2022-07-29T07:14:02.944Z,102058.03
2022-07-29T07:16:33.412Z,102048.56
2022-07-29T07:19:03.198Z,102040.75
2022-07-29T07:21:31.816Z,102046.47
2022-07-29T07:24:00.307Z,102045.06
2022-07-29T07:26:28.773Z,102042.72
2022-07-29T07:28:56.817Z,102039.50
2022-07-29T07:31:25.005Z,102043.69
2022-07-29T07:33:54.356Z,102046.09
2022-07-29T07:36:24.192Z,102040.38
2022-07-29T07:38:52.410Z,102039.56
2022-07-29T07:41:20.420Z,102020.59
2022-07-29T07:43:48.617Z,102023.56
2022-07-29T07:46:17.015Z,101989.19
2022-07-29T07:48:45.429Z,102018.50
2022-07-29T07:51:13.614Z,102011.38
2022-07-29T07:53:43.683Z,101970.53
2022-07-29T07:56:12.833Z,102004.56
2022-07-29T07:58:41.194Z,102007.63
2022-07-29T08:01:09.709Z,102008.06
2022-07-29T08:03:38.095Z,102007.22
2022-07-29T08:06:06.370Z,102011.03
2022-07-29T08:08:34.476Z,102013.97
2022-07-29T08:11:09.123Z,102015.03
2022-07-29T08:13:39.127Z,102007.75
2022-07-29T08:16:13.620Z,102013.13
2022-07-29T08:18:43.507Z,102010.84
2022-07-29T08:21:14.784Z,102011.41
2022-07-29T08:23:54.339Z,102005.81
2022-07-29T08:26:28.240Z,101979.66
2022-07-29T08:28:56.590Z,102009.31
2022-07-29T08:31:24.591Z,102009.16
2022-07-29T08:33:52.696Z,102010.69
2022-07-29T08:36:22.226Z,102014.50
2022-07-29T08:38:50.610Z,102010.28
2022-07-29T08:41:20.125Z,102011.38
2022-07-29T08:43:50.255Z,102010.34
2022-07-29T08:46:19.178Z,102006.13
2022-07-29T08:48:48.234Z,102001.00
2022-07-29T08:51:18.191Z,101988.72
2022-07-29T08:53:48.424Z,102006.75
2022-07-29T08:56:17.854Z,102005.41
2022-07-29T08:58:50.736Z,101949.38
2022-07-29T09:01:36.379Z,102008.34
2022-07-29T09:04:13.684Z,102006.47
2022-07-29T09:06:45.892Z,101997.16
2022-07-29T09:09:15.549Z,101990.06
2022-07-29T09:11:44.617Z,102005.38
2022-07-29T09:14:14.804Z,102011.09
2022-07-29T09:16:54.245Z,101957.50
2022-07-29T09:19:30.591Z,102009.88
2022-07-29T09:21:59.204Z,101993.53
2022-07-29T09:24:29.121Z,102012.38
2022-07-29T09:26:57.075Z,101965.78
2022-07-29T09:29:26.313Z,101991.09
2022-07-29T09:31:57.153Z,101999.53
2022-07-29T09:34:27.621Z,101963.84
2022-07-29T09:36:57.654Z,101990.16
2022-07-29T09:39:31.306Z,101984.41
2022-07-29T09:42:01.278Z,101986.72
2022-07-29T09:44:42.382Z,101971.72
2022-07-29T09:47:11.791Z,101952.34
2022-07-29T09:49:54.074Z,101990.84
2022-07-29T09:52:22.486Z,101992.13
2022-07-29T09:54:50.374Z,101984.84
2022-07-29T09:57:30.517Z,101997.97
2022-07-29T10:00:00.366Z,101986.34
2022-07-29T10:02:35.024Z,101994.50
2022-07-29T10:05:04.866Z,101991.75
2022-07-29T10:07:51.770Z,101998.06
2022-07-29T10:10:24.074Z,101998.53
2022-07-29T10:12:56.973Z,101999.34
2022-07-29T10:15:26.513Z,102000.09
2022-07-29T10:17:57.478Z,101998.13
2022-07-29T10:20:26.269Z,101995.34
2022-07-29T10:22:55.212Z,101956.16
2022-07-29T10:25:24.821Z,101994.47
2022-07-29T10:27:54.209Z,101988.28
2022-07-29T10:30:23.833Z,101981.88
2022-07-29T10:33:08.951Z,101992.38
2022-07-29T10:35:56.795Z,101978.16
2022-07-29T10:38:45.963Z,101984.31
2022-07-29T10:41:32.362Z,101988.13
2022-07-29T10:44:23.087Z,101982.78
2022-07-29T10:46:52.728Z,101989.22
2022-07-29T10:49:25.015Z,101979.28
2022-07-29T10:51:55.839Z,101979.16
2022-07-29T10:54:44.165Z,101980.63
2022-07-29T10:57:17.245Z,101976.19
2022-07-29T10:59:46.709Z,101968.25
2022-07-29T11:02:46.921Z,101969.53
2022-07-29T11:05:21.846Z,101971.06
2022-07-29T11:08:28.011Z,101974.53
2022-07-29T11:11:44.015Z,101974.16
2022-07-29T11:14:19.971Z,101962.84
2022-07-29T11:17:07.005Z,101950.94
2022-07-29T11:19:40.278Z,101959.03
2022-07-29T11:22:16.623Z,101957.16
2022-07-29T11:24:50.085Z,101960.53
2022-07-29T11:27:21.308Z,101947.78
2022-07-29T11:29:53.463Z,101937.63
2022-07-29T11:32:24.066Z,101954.09
2022-07-29T11:38:29.018Z,101949.06
2022-07-29T11:41:23.729Z,101951.91
2022-07-29T11:43:53.525Z,101952.78
2022-07-29T11:46:50.101Z,101945.31
2022-07-29T11:49:31.715Z,101941.69
2022-07-29T11:52:02.889Z,101948.78
2022-07-29T11:54:58.532Z,101943.84
2022-07-29T11:57:37.786Z,101955.06
2022-07-29T12:00:09.981Z,101950.19
2022-07-29T12:02:43.122Z,101956.38
2022-07-29T12:05:12.504Z,101956.13
2022-07-29T12:07:46.030Z,101953.66
2022-07-29T12:10:19.714Z,101958.09
2022-07-29T12:12:57.709Z,101955.88
2022-07-29T12:15:45.723Z,101942.72
2022-07-29T12:18:18.295Z,101932.13
2022-07-29T12:20:47.409Z,101946.44
2022-07-29T12:23:17.462Z,101955.84
2022-07-29T12:25:49.717Z,101940.81
2022-07-29T12:28:26.660Z,101941.53
2022-07-29T12:30:55.648Z,101941.31
2022-07-29T12:33:26.032Z,101947.28
2022-07-29T12:36:06.977Z,101942.28
2022-07-29T12:38:36.962Z,101946.00
2022-07-29T12:41:06.572Z,101949.81
2022-07-29T12:43:35.254Z,101947.34
2022-07-29T12:46:15.907Z,101941.28
2022-07-29T12:48:45.502Z,101947.31
2022-07-29T12:51:15.466Z,101935.31
2022-07-29T12:53:43.891Z,101936.13
2022-07-29T12:56:41.668Z,101935.59
2022-07-29T12:59:18.042Z,101888.63
2022-07-29T13:01:48.147Z,101935.00
2022-07-29T13:04:26.988Z,101926.47
2022-07-29T13:07:02.030Z,101919.47
2022-07-29T13:09:40.161Z,101922.91
2022-07-29T13:12:11.622Z,101929.81
2022-07-29T13:14:41.087Z,101919.53
2022-07-29T13:17:11.135Z,101916.56
2022-07-29T13:19:41.888Z,101913.22
2022-07-29T13:22:10.591Z,101906.50
2022-07-29T13:24:48.512Z,101911.13
2022-07-29T13:27:18.217Z,101908.66
2022-07-29T13:29:46.328Z,101877.09
2022-07-29T13:32:15.249Z,101898.47
2022-07-29T13:34:43.142Z,101902.03
2022-07-29T13:37:11.161Z,101864.44
2022-07-29T13:39:39.602Z,101904.97
2022-07-29T13:42:11.078Z,101907.16
2022-07-29T13:44:40.724Z,101893.66
2022-07-29T13:47:09.061Z,101900.22
2022-07-29T13:49:37.638Z,101902.47
2022-07-29T13:52:08.537Z,101875.88
2022-07-29T13:54:42.116Z,101883.72
2022-07-29T13:57:11.910Z,101884.94
2022-07-29T13:59:41.813Z,101884.28
2022-07-29T14:02:10.181Z,101871.88
2022-07-29T14:04:39.472Z,101878.91
2022-07-29T14:07:08.375Z,101878.69
2022-07-29T14:09:40.965Z,101864.00
2022-07-29T14:12:11.022Z,101874.91
2022-07-29T14:14:38.929Z,101865.97
2022-07-29T14:17:08.382Z,101865.34
2022-07-29T14:19:39.202Z,101869.28
2022-07-29T14:22:09.495Z,101871.66
2022-07-29T14:24:39.552Z,101850.66
2022-07-29T14:27:09.006Z,101866.13
2022-07-29T14:29:38.791Z,101762.53
2022-07-29T14:32:10.157Z,101858.38
2022-07-29T14:34:38.972Z,101860.38
2022-07-29T14:37:09.501Z,101807.66
2022-07-29T14:39:44.113Z,101861.25
2022-07-29T14:42:12.733Z,101857.34
2022-07-29T14:44:42.370Z,101854.31
2022-07-29T14:47:12.065Z,101851.38
2022-07-29T14:49:40.099Z,101852.81
2022-07-29T14:52:08.133Z,101853.91
2022-07-29T14:54:36.144Z,101863.53
2022-07-29T14:57:04.054Z,101815.72
2022-07-29T14:59:31.992Z,101851.69
2022-07-29T15:02:00.358Z,101850.53
2022-07-29T15:04:30.054Z,101841.28
2022-07-29T15:06:57.923Z,101851.81
2022-07-29T15:09:26.003Z,101849.19
2022-07-29T15:11:54.031Z,101843.34
2022-07-29T15:14:22.022Z,101837.00
2022-07-29T15:16:50.256Z,101830.66
2022-07-29T15:19:20.792Z,101832.72
2022-07-29T15:21:50.015Z,101832.19
2022-07-29T15:24:19.187Z,101839.34
2022-07-29T15:26:47.783Z,101815.66
2022-07-29T15:29:16.054Z,101836.56
2022-07-29T15:31:44.627Z,101838.41
2022-07-29T15:34:12.706Z,101826.38
2022-07-29T15:36:56.338Z,101827.94
2022-07-29T15:39:25.973Z,101829.47
2022-07-29T15:41:53.998Z,101828.16
2022-07-29T15:44:22.952Z,101817.03
2022-07-29T15:47:07.395Z,101819.66
2022-07-29T15:49:48.757Z,101824.84
2022-07-29T15:52:25.968Z,101812.09
2022-07-29T15:54:57.666Z,101830.19
2022-07-29T15:57:26.375Z,101831.34
2022-07-29T15:59:54.261Z,101821.28
2022-07-29T16:02:22.271Z,101817.69
2022-07-29T16:04:50.518Z,101822.34
2022-07-29T16:07:18.729Z,101771.91
2022-07-29T16:09:52.429Z,101827.75
2022-07-29T16:12:22.729Z,101820.81
2022-07-29T16:14:51.563Z,101807.59
2022-07-29T16:17:19.916Z,101814.84
2022-07-29T16:19:48.544Z,101803.97
2022-07-29T16:22:16.581Z,101821.47
2022-07-29T16:24:44.544Z,101809.00
2022-07-29T16:27:12.660Z,101804.56
2022-07-29T16:29:41.906Z,101814.81
2022-07-29T16:32:09.819Z,101800.47
2022-07-29T16:34:37.917Z,101801.47
2022-07-29T16:37:05.950Z,101807.28
2022-07-29T16:39:33.906Z,101790.63
2022-07-29T16:42:05.300Z,101788.59
2022-07-29T16:44:33.554Z,101806.84
2022-07-29T16:47:05.694Z,101797.50
2022-07-29T16:49:33.692Z,101806.06
2022-07-29T16:52:01.878Z,101785.00
2022-07-29T16:54:30.398Z,101802.03
2022-07-29T16:57:00.721Z,101802.19
2022-07-29T16:59:29.273Z,101806.34
2022-07-29T17:01:58.029Z,101800.97
2022-07-29T17:04:28.613Z,101799.41
2022-07-29T17:06:56.662Z,101807.03
2022-07-29T17:09:25.464Z,101805.53
2022-07-29T17:11:55.153Z,101813.78
2022-07-29T17:14:25.043Z,101807.50
2022-07-29T17:17:01.147Z,101796.25
2022-07-29T17:19:33.773Z,101806.47
2022-07-29T17:22:11.762Z,101805.88
2022-07-29T17:24:42.419Z,101816.97
2022-07-29T17:27:10.949Z,101820.81
2022-07-29T17:29:39.289Z,101802.63
2022-07-29T17:32:08.270Z,101808.97
2022-07-29T17:34:38.196Z,101818.13
2022-07-29T17:37:07.042Z,101778.31
2022-07-29T17:39:36.123Z,101822.94
2022-07-29T17:42:04.159Z,101791.09
2022-07-29T17:44:36.161Z,101823.16
2022-07-29T17:47:05.287Z,101823.25
2022-07-29T17:49:36.371Z,101815.31
2022-07-29T17:52:07.527Z,101797.56
2022-07-29T17:54:35.465Z,101818.00
2022-07-29T17:57:03.421Z,101833.13
2022-07-29T17:59:31.546Z,101825.13
2022-07-29T18:01:59.497Z,101827.78
2022-07-29T18:04:28.702Z,101821.56
2022-07-29T18:06:57.440Z,101825.09
2022-07-29T18:09:26.949Z,101817.97
2022-07-29T18:11:55.010Z,101816.19
2022-07-29T18:14:23.059Z,101822.44
2022-07-29T18:16:51.167Z,101818.84
2022-07-29T18:19:19.132Z,101819.75
2022-07-29T18:21:53.932Z,101820.59
2022-07-29T18:24:25.580Z,101839.25
2022-07-29T18:26:55.356Z,101842.78
2022-07-29T18:29:23.400Z,101846.31
2022-07-29T18:31:51.276Z,101844.47
2022-07-29T18:34:19.399Z,101830.25
2022-07-29T18:36:47.507Z,101833.78
2022-07-29T18:39:20.713Z,101832.84
2022-07-29T18:41:51.001Z,101844.38
2022-07-29T18:44:21.709Z,101840.84
2022-07-29T18:46:50.726Z,101840.78
2022-07-29T18:49:18.945Z,101847.88
2022-07-29T18:51:46.924Z,101843.47
2022-07-29T18:54:15.283Z,101843.41
2022-07-29T18:56:43.149Z,101837.19
2022-07-29T18:59:11.515Z,101838.97
2022-07-29T19:01:40.999Z,101836.25
2022-07-29T19:04:09.043Z,101846.88
2022-07-29T19:06:37.126Z,101839.72
2022-07-29T19:09:05.393Z,101843.25
2022-07-29T19:11:33.285Z,101839.69
2022-07-29T19:14:01.305Z,101837.00
2022-07-29T19:16:29.558Z,101845.84
2022-07-29T19:19:00.905Z,101828.81
2022-07-29T19:21:29.774Z,101825.28
2022-07-29T19:24:05.947Z,101843.88
2022-07-29T19:26:38.691Z,101846.50
2022-07-29T19:29:06.741Z,101847.38
2022-07-29T19:31:34.686Z,101846.41
2022-07-29T19:34:04.025Z,101858.78
2022-07-29T19:36:32.179Z,101852.53
2022-07-29T19:39:00.617Z,101856.94
2022-07-29T19:41:28.981Z,101848.00
2022-07-29T19:43:57.683Z,101839.97
2022-07-29T19:46:28.827Z,101844.38
2022-07-29T19:48:57.569Z,101843.53
2022-07-29T19:51:27.216Z,101839.88
2022-07-29T19:53:55.206Z,101851.41
2022-07-29T19:56:26.611Z,101720.44
2022-07-29T19:58:55.129Z,101856.69
2022-07-29T20:01:23.436Z,101854.91
2022-07-29T20:03:51.612Z,101858.44
2022-07-29T20:06:19.687Z,101861.06
2022-07-29T20:08:49.183Z,101849.53
2022-07-29T20:11:17.173Z,101829.91
2022-07-29T20:13:45.333Z,101848.66
2022-07-29T20:16:13.330Z,101849.53
2022-07-29T20:18:41.361Z,101837.03
2022-07-29T20:21:09.307Z,101855.78
2022-07-29T20:23:37.510Z,101823.72
2022-07-29T20:26:09.473Z,101850.47
2022-07-29T20:28:40.464Z,101842.41
2022-07-29T20:31:08.786Z,101833.47
2022-07-29T20:33:36.736Z,101848.56
2022-07-29T20:36:05.252Z,101846.75
2022-07-29T20:38:33.135Z,101845.84
2022-07-29T20:41:01.097Z,101845.81
2022-07-29T20:43:30.929Z,101816.28
2022-07-29T20:46:04.174Z,101856.34
2022-07-29T20:48:32.455Z,101847.47
2022-07-29T20:51:00.316Z,101850.16
2022-07-29T20:53:28.273Z,101844.84
2022-07-29T20:55:56.782Z,101843.00
2022-07-29T20:58:24.765Z,101827.88
2022-07-29T21:00:54.230Z,101836.84
2022-07-29T21:03:22.742Z,101843.91
2022-07-29T21:05:50.732Z,101837.59
2022-07-29T21:08:18.666Z,101845.63
2022-07-29T21:10:46.778Z,101846.50
2022-07-29T21:13:14.804Z,101844.66
2022-07-29T21:15:45.723Z,101828.56
2022-07-29T21:18:27.420Z,101849.03
2022-07-29T21:20:55.446Z,101853.44
2022-07-29T21:23:23.392Z,101850.78
2022-07-29T21:25:51.591Z,101846.31
2022-07-29T21:28:29.508Z,101848.97
2022-07-29T21:30:59.736Z,101847.19
2022-07-29T21:33:30.590Z,101836.47
2022-07-29T21:36:20.242Z,101845.44
2022-07-29T21:38:46.744Z,101813.41
2022-07-29T21:41:15.504Z,101840.13
2022-07-29T21:43:43.446Z,101839.16
2022-07-29T21:46:11.541Z,101813.38
2022-07-29T21:48:44.338Z,101838.31
2022-07-29T21:51:13.552Z,101834.75
2022-07-29T21:53:41.575Z,101839.16
2022-07-29T21:56:14.428Z,101801.78
2022-07-29T21:58:43.220Z,101825.81
2022-07-29T22:01:11.213Z,101839.09
2022-07-29T22:03:40.607Z,101827.59
2022-07-29T22:06:08.738Z,101813.34
2022-07-29T22:08:40.279Z,101831.94
2022-07-29T22:11:08.356Z,101832.72
2022-07-29T22:13:37.043Z,101835.31
2022-07-29T22:16:05.234Z,101824.66
2022-07-29T22:18:33.119Z,101835.22
2022-07-29T22:21:02.790Z,101840.47
2022-07-29T22:23:30.630Z,101827.03
2022-07-29T22:25:58.529Z,101818.06
2022-07-29T22:28:26.832Z,101826.97
2022-07-29T22:30:54.758Z,101833.06
2022-07-29T22:33:23.633Z,101827.69
2022-07-29T22:35:51.899Z,101831.19
2022-07-29T22:38:21.654Z,101829.41
2022-07-29T22:40:51.256Z,101831.19
2022-07-29T22:43:19.336Z,101828.53
2022-07-29T22:45:47.457Z,101815.22
2022-07-29T22:48:15.632Z,101825.03
2022-07-29T22:50:43.751Z,101830.47
2022-07-29T22:53:11.726Z,101827.84
2022-07-29T22:55:41.118Z,101814.38
2022-07-29T22:58:09.346Z,101833.06
2022-07-29T23:00:37.444Z,101830.28
2022-07-29T23:03:05.449Z,101832.91
2022-07-29T23:05:33.573Z,101801.56
2022-07-29T23:08:01.565Z,101827.41
2022-07-29T23:10:29.811Z,101827.31
2022-07-29T23:12:59.418Z,101828.16
2022-07-29T23:15:27.258Z,101824.56
2022-07-29T23:17:55.146Z,101825.38
2022-07-29T23:20:23.205Z,101825.28
2022-07-29T23:22:51.130Z,101827.03
2022-07-29T23:25:19.146Z,101824.31
2022-07-29T23:27:47.226Z,101831.50
2022-07-29T23:30:16.776Z,101835.94
2022-07-29T23:32:44.642Z,101837.69
2022-07-29T23:35:13.010Z,101835.06
2022-07-29T23:37:40.936Z,101805.59
2022-07-29T23:40:14.150Z,101831.53
2022-07-29T23:42:44.104Z,101822.56
2022-07-29T23:45:12.665Z,101829.72
2022-07-29T23:47:43.745Z,101807.47
2022-07-29T23:50:13.654Z,101804.72
2022-07-29T23:52:42.162Z,101821.69
2022-07-29T23:55:37.157Z,101796.63
2022-07-29T23:58:00.001Z,101836.75
